Urb Palmas Reales, Puerto Rico
Current Conditions -  °F | °C
As of 4:53 PM on Friday 31 Oct 2014 (Local Time) from TJNR Reporting Station
Clear Clear  
Wind Chill: 82°   Ceiling: Unl
Heat Index: 89°   Visibility: 10mi
Dew Point: 76°   Wind: 7mph
Humidity: 82%   Direction: 220°SW
Pressure: 29.89"   Gusts: NA
Location:  18.1494°N, 65.8294°W
Report Text: TJNR 312053Z AUTO 22006KT 10SM CLR 28/24 A2989 RMK AO2 SLP122 60003 T02780244 55001 $
Loading
Personal Weather Stations






























Interactive Weather Map
Tropical Storm Tracking
New forecast layout! Learn more

10-Day Weather Forecast

Advertisements
Track Severe Weather on mobile